createdAt,value
2018-08-07T00:00:37.355Z,3.63
2018-08-07T00:03:08.594Z,4.37
2018-08-07T00:05:38.648Z,4.17
2018-08-07T00:08:10.444Z,3.60
2018-08-07T00:10:40.206Z,3.93
2018-08-07T00:13:09.994Z,4.10
2018-08-07T00:15:39.770Z,3.60
2018-08-07T00:18:09.884Z,3.90
2018-08-07T00:20:39.915Z,3.70
2018-08-07T00:23:10.015Z,3.60
2018-08-07T00:25:40.006Z,3.70
2018-08-07T00:28:09.828Z,4.43
2018-08-07T00:30:39.731Z,3.70
2018-08-07T00:33:10.350Z,3.87
2018-08-07T00:35:41.125Z,4.23
2018-08-07T00:38:10.934Z,4.03
2018-08-07T00:40:40.733Z,3.70
2018-08-07T00:43:10.496Z,4.80
2018-08-07T00:45:40.480Z,4.30
2018-08-07T00:48:10.494Z,4.10
2018-08-07T00:50:40.504Z,4.10
2018-08-07T00:53:11.448Z,4.00
2018-08-07T00:55:41.382Z,4.47
2018-08-07T00:58:11.266Z,4.23
2018-08-07T01:00:41.083Z,3.80
2018-08-07T01:03:10.930Z,4.23
2018-08-07T01:05:40.774Z,3.90
2018-08-07T01:08:10.642Z,3.83
2018-08-07T01:10:40.553Z,4.00
2018-08-07T01:13:10.622Z,4.13
2018-08-07T01:15:40.483Z,4.20
2018-08-07T01:18:10.230Z,4.33
2018-08-07T01:20:39.971Z,4.20
2018-08-07T01:23:09.770Z,4.23
2018-08-07T01:25:44.618Z,3.90
2018-08-07T01:28:14.373Z,4.20
2018-08-07T01:30:45.210Z,4.30
2018-08-07T01:33:15.160Z,4.33
2018-08-07T01:35:44.992Z,4.70
2018-08-07T01:38:14.796Z,4.80
2018-08-07T01:40:45.743Z,4.67
2018-08-07T01:43:15.520Z,4.63
2018-08-07T01:45:45.344Z,4.40
2018-08-07T01:48:15.266Z,4.40
2018-08-07T01:50:45.319Z,4.80
2018-08-07T01:53:15.337Z,4.20
2018-08-07T01:55:45.150Z,4.10
2018-08-07T01:58:15.041Z,4.13
2018-08-07T02:00:45.294Z,4.57
2018-08-07T02:03:15.289Z,4.23
2018-08-07T02:05:45.210Z,4.23
2018-08-07T02:08:14.983Z,3.77
2018-08-07T02:10:45.036Z,3.77
2018-08-07T02:13:15.047Z,4.20
2018-08-07T02:15:48.649Z,4.63
2018-08-07T02:18:18.449Z,4.23
2018-08-07T02:20:48.240Z,3.70
2018-08-07T02:23:18.011Z,4.40
2018-08-07T02:25:47.825Z,4.07
2018-08-07T02:28:17.554Z,4.70
2018-08-07T02:30:47.267Z,4.40
2018-08-07T02:33:17.610Z,4.87
2018-08-07T02:35:47.346Z,5.30
2018-08-07T02:38:17.177Z,4.37
2018-08-07T02:40:47.583Z,4.47
2018-08-07T02:43:17.453Z,5.90
2018-08-07T02:45:47.207Z,4.57
2018-08-07T02:48:17.278Z,5.10
2018-08-07T02:50:47.205Z,5.07
2018-08-07T02:53:18.227Z,4.13
2018-08-07T02:55:48.018Z,4.23
2018-08-07T02:58:17.958Z,4.90
2018-08-07T03:00:47.875Z,4.87
2018-08-07T03:03:17.840Z,5.13
2018-08-07T03:05:47.796Z,4.50
2018-08-07T03:08:17.697Z,4.97
2018-08-07T03:10:47.854Z,4.40
2018-08-07T03:13:17.780Z,4.37
2018-08-07T03:16:06.366Z,5.50
2018-08-07T03:18:36.342Z,4.40
2018-08-07T03:21:06.183Z,5.07
2018-08-07T03:23:37.049Z,4.90
2018-08-07T03:26:06.866Z,4.80
2018-08-07T03:28:36.759Z,4.80
2018-08-07T03:31:06.531Z,5.50
2018-08-07T03:33:36.286Z,5.07
2018-08-07T03:36:06.519Z,4.83
2018-08-07T03:38:36.422Z,4.80
2018-08-07T03:41:06.270Z,4.67
2018-08-07T03:43:36.607Z,6.10
2018-08-07T03:46:06.410Z,5.80
2018-08-07T03:48:36.210Z,5.40
2018-08-07T03:51:06.222Z,5.37
2018-08-07T03:53:36.006Z,5.00
2018-08-07T03:56:05.876Z,5.27
2018-08-07T03:58:36.056Z,5.17
2018-08-07T04:01:05.902Z,4.90
2018-08-07T04:03:35.597Z,6.20
2018-08-07T04:06:05.482Z,5.27
2018-08-07T04:08:35.332Z,5.13
2018-08-07T04:11:05.166Z,5.23
2018-08-07T04:13:34.980Z,5.50
2018-08-07T04:16:04.762Z,4.93
2018-08-07T04:18:34.637Z,5.50
2018-08-07T04:21:04.509Z,5.40
2018-08-07T04:23:34.254Z,5.70
2018-08-07T04:26:04.062Z,6.20
2018-08-07T04:28:34.270Z,5.57
2018-08-07T04:31:04.331Z,6.23
2018-08-07T04:33:34.095Z,5.77
2018-08-07T04:36:04.098Z,5.70
2018-08-07T04:38:34.222Z,5.67
2018-08-07T04:41:03.984Z,5.43
2018-08-07T04:43:34.058Z,5.23
2018-08-07T04:46:03.917Z,5.60
2018-08-07T04:48:33.875Z,5.30
2018-08-07T04:51:03.550Z,5.80
2018-08-07T04:53:33.258Z,5.63
2018-08-07T04:56:02.968Z,5.50
2018-08-07T04:58:32.749Z,5.23
2018-08-07T05:01:02.650Z,5.20
2018-08-07T05:03:32.666Z,5.83
2018-08-07T05:06:02.439Z,5.23
2018-08-07T05:08:32.394Z,5.87
2018-08-07T05:11:02.262Z,4.83
2018-08-07T05:13:32.227Z,4.90
2018-08-07T05:16:02.430Z,5.10
2018-08-07T05:18:32.385Z,5.90
2018-08-07T05:21:02.151Z,5.20
2018-08-07T05:23:32.306Z,5.57
2018-08-07T05:26:01.986Z,5.40
2018-08-07T05:28:31.664Z,5.77
2018-08-07T05:31:01.555Z,5.03
2018-08-07T05:33:31.636Z,5.17
2018-08-07T05:36:01.447Z,5.60
2018-08-07T05:38:31.151Z,4.90
2018-08-07T05:41:00.948Z,5.17
2018-08-07T05:43:30.806Z,4.97
2018-08-07T05:46:00.655Z,5.13
2018-08-07T05:48:30.463Z,5.80
2018-08-07T05:51:00.864Z,6.10
2018-08-07T05:53:30.115Z,5.00
2018-08-07T05:55:59.954Z,5.43
2018-08-07T05:58:29.718Z,5.37
2018-08-07T06:00:59.723Z,5.80
2018-08-07T06:03:29.598Z,5.13
2018-08-07T06:05:59.438Z,5.17
2018-08-07T06:08:29.369Z,5.47
2018-08-07T06:10:59.281Z,5.50
2018-08-07T06:13:29.128Z,5.73
2018-08-07T06:15:59.018Z,5.70
2018-08-07T06:18:28.865Z,5.70
2018-08-07T06:20:58.612Z,5.80
2018-08-07T06:23:28.418Z,7.10
2018-08-07T06:25:58.309Z,6.33
2018-08-07T06:28:28.329Z,5.13
2018-08-07T06:30:58.218Z,5.80
2018-08-07T06:33:28.307Z,6.03
2018-08-07T06:35:58.118Z,6.43
2018-08-07T06:38:27.939Z,5.60
2018-08-07T06:40:57.789Z,5.60
2018-08-07T06:43:27.563Z,5.37
2018-08-07T06:45:57.426Z,5.47
2018-08-07T06:48:27.274Z,5.93
2018-08-07T06:50:57.080Z,6.80
2018-08-07T06:53:27.670Z,5.87
2018-08-07T06:55:57.478Z,5.97
2018-08-07T06:58:27.346Z,6.20
2018-08-07T07:00:57.178Z,5.40
2018-08-07T07:03:27.158Z,5.23
2018-08-07T07:05:57.044Z,5.70
2018-08-07T07:08:27.176Z,5.47
2018-08-07T07:10:57.006Z,5.60
2018-08-07T07:13:26.837Z,6.03
2018-08-07T07:15:56.523Z,5.70
2018-08-07T07:18:26.216Z,5.60
2018-08-07T07:20:55.971Z,5.63
2018-08-07T07:23:25.551Z,5.40
2018-08-07T07:25:55.821Z,6.03
2018-08-07T07:28:25.473Z,5.67
2018-08-07T07:30:55.162Z,5.70
2018-08-07T07:33:24.853Z,5.67
2018-08-07T07:35:54.870Z,5.10
2018-08-07T07:38:24.514Z,5.53
2018-08-07T07:40:54.592Z,5.47
2018-08-07T07:43:24.291Z,5.93
2018-08-07T07:45:54.018Z,5.80
2018-08-07T07:48:23.730Z,6.20
2018-08-07T07:50:53.365Z,5.53
2018-08-07T07:53:23.059Z,5.17
2018-08-07T07:55:53.397Z,5.13
2018-08-07T07:58:23.429Z,5.10
2018-08-07T08:00:53.236Z,5.53
2018-08-07T08:03:22.926Z,4.57
2018-08-07T08:05:52.649Z,5.43
2018-08-07T08:08:22.266Z,6.00
2018-08-07T08:10:52.390Z,5.10
2018-08-07T08:13:22.080Z,5.00
2018-08-07T08:15:51.956Z,6.00
2018-08-07T08:18:21.642Z,5.27
2018-08-07T08:20:51.338Z,5.07
2018-08-07T08:23:21.054Z,5.40
2018-08-07T08:25:51.258Z,5.17
2018-08-07T08:28:21.040Z,5.27
2018-08-07T08:30:51.348Z,5.23
2018-08-07T08:33:21.150Z,4.40
2018-08-07T08:35:50.938Z,5.10
2018-08-07T08:38:20.697Z,4.17
2018-08-07T08:40:50.476Z,4.70
2018-08-07T08:43:20.153Z,4.27
2018-08-07T08:45:49.893Z,5.17
2018-08-07T08:48:19.782Z,4.40
2018-08-07T08:50:50.097Z,4.80
2018-08-07T08:53:20.048Z,4.57
2018-08-07T08:55:49.795Z,4.40
2018-08-07T08:58:19.505Z,4.40
2018-08-07T09:00:49.362Z,4.03
2018-08-07T09:03:19.344Z,4.63
2018-08-07T09:05:49.958Z,4.43
2018-08-07T09:08:19.867Z,4.63
2018-08-07T09:10:49.592Z,5.03
2018-08-07T09:13:19.738Z,4.13
2018-08-07T09:15:49.576Z,4.90
2018-08-07T09:18:19.666Z,4.67
2018-08-07T09:20:49.419Z,4.47
2018-08-07T09:23:19.158Z,4.00
2018-08-07T09:25:48.954Z,5.03
2018-08-07T09:28:18.685Z,3.97
2018-08-07T09:30:48.439Z,4.20
2018-08-07T09:33:18.292Z,4.37
2018-08-07T09:35:48.205Z,4.90
2018-08-07T09:38:17.874Z,4.40
2018-08-07T09:40:48.645Z,5.00
2018-08-07T09:43:18.798Z,4.47
2018-08-07T09:45:48.698Z,4.13
2018-08-07T09:48:18.717Z,3.93
2018-08-07T09:51:30.515Z,4.53
2018-08-07T09:54:00.333Z,4.13
2018-08-07T09:56:30.097Z,4.90
2018-08-07T09:58:59.816Z,4.33
2018-08-07T10:01:33.743Z,4.60
2018-08-07T10:04:03.778Z,4.10
2018-08-07T10:06:33.550Z,4.90
2018-08-07T10:09:03.334Z,4.63
2018-08-07T10:11:33.030Z,4.53
2018-08-07T10:14:02.714Z,4.47
2018-08-07T10:16:39.081Z,5.23
2018-08-07T10:19:09.230Z,5.77
2018-08-07T10:21:39.068Z,4.43
2018-08-07T10:24:37.949Z,4.70
2018-08-07T10:27:11.699Z,4.37
2018-08-07T10:29:41.698Z,4.40
2018-08-07T10:32:12.648Z,4.90
2018-08-07T10:34:42.527Z,4.33
2018-08-07T10:37:12.317Z,4.43
2018-08-07T10:39:42.144Z,4.23
2018-08-07T10:42:18.581Z,3.90
2018-08-07T10:44:48.482Z,4.20
2018-08-07T10:47:26.726Z,4.57
2018-08-07T10:50:09.324Z,4.07
2018-08-07T10:52:39.430Z,4.20
2018-08-07T10:55:10.078Z,4.40
2018-08-07T10:57:43.855Z,4.00
2018-08-07T11:00:22.561Z,4.13
2018-08-07T11:02:53.061Z,4.30
2018-08-07T11:05:23.480Z,4.00
2018-08-07T11:07:55.395Z,4.23
2018-08-07T11:10:25.493Z,3.87
2018-08-07T11:13:00.842Z,3.97
2018-08-07T11:15:34.868Z,4.63
2018-08-07T11:18:11.054Z,4.17
2018-08-07T11:20:43.076Z,4.77
2018-08-07T11:23:24.143Z,4.00
2018-08-07T11:25:54.518Z,4.20
2018-08-07T11:28:26.838Z,3.93
2018-08-07T11:30:56.732Z,4.57
2018-08-07T11:33:26.623Z,4.57
2018-08-07T11:35:56.560Z,4.20
2018-08-07T11:38:26.343Z,4.77
2018-08-07T11:40:56.094Z,4.23
2018-08-07T11:43:29.654Z,4.40
2018-08-07T11:45:59.657Z,5.17
2018-08-07T11:48:29.622Z,3.83
2018-08-07T11:50:59.548Z,4.47
2018-08-07T11:53:29.601Z,4.00
2018-08-07T11:55:59.366Z,4.17
2018-08-07T11:58:29.266Z,3.87
2018-08-07T12:01:01.352Z,3.83
2018-08-07T12:03:57.656Z,3.43
2018-08-07T12:06:27.567Z,3.67
2018-08-07T12:08:58.857Z,3.53
2018-08-07T12:11:28.659Z,3.40
2018-08-07T12:13:58.486Z,4.10
2018-08-07T12:16:28.298Z,3.27
2018-08-07T12:19:19.773Z,4.00
2018-08-07T12:21:58.907Z,3.90
2018-08-07T12:24:49.917Z,3.70
2018-08-07T12:27:19.944Z,3.70
2018-08-07T12:29:49.687Z,3.60
2018-08-07T12:32:19.970Z,3.60
2018-08-07T12:34:49.786Z,3.43
2018-08-07T12:37:20.336Z,3.13
2018-08-07T12:39:50.677Z,3.73
2018-08-07T12:42:20.951Z,2.73
2018-08-07T12:44:56.121Z,3.57
2018-08-07T12:47:26.493Z,3.27
2018-08-07T12:49:58.090Z,3.50
2018-08-07T12:55:33.698Z,3.07
2018-08-07T12:58:04.457Z,3.60
2018-08-07T13:00:34.878Z,3.90
2018-08-07T13:03:06.260Z,3.63
2018-08-07T13:05:36.564Z,3.77
2018-08-07T13:08:08.373Z,3.80
2018-08-07T13:10:38.908Z,3.90
2018-08-07T13:13:10.284Z,3.60
2018-08-07T13:15:40.578Z,3.30
2018-08-07T13:18:11.779Z,3.90
2018-08-07T13:20:42.137Z,3.70
2018-08-07T13:23:12.772Z,4.20
2018-08-07T13:25:44.661Z,4.70
2018-08-07T13:28:15.245Z,4.63
2018-08-07T13:30:45.768Z,4.00
2018-08-07T13:33:15.961Z,4.57
2018-08-07T13:35:46.465Z,4.13
2018-08-07T13:38:17.779Z,4.43
2018-08-07T13:40:48.332Z,4.23
2018-08-07T13:43:18.840Z,3.67
2018-08-07T13:45:49.337Z,4.10
2018-08-07T13:48:20.698Z,4.30
2018-08-07T13:50:51.033Z,4.20
2018-08-07T13:53:21.529Z,4.13
2018-08-07T13:55:52.059Z,4.27
2018-08-07T13:58:22.398Z,4.43
2018-08-07T14:00:52.766Z,4.00
2018-08-07T14:03:23.331Z,3.97
2018-08-07T14:05:53.856Z,4.90
2018-08-07T14:08:25.542Z,4.00
2018-08-07T14:11:06.605Z,3.93
2018-08-07T14:13:39.328Z,4.10
2018-08-07T14:16:09.902Z,4.30
2018-08-07T14:18:40.661Z,3.77
2018-08-07T14:21:11.230Z,3.77
2018-08-07T14:23:41.834Z,4.37
2018-08-07T14:26:12.883Z,4.17
2018-08-07T14:28:43.436Z,3.90
2018-08-07T14:31:13.747Z,3.93
2018-08-07T14:33:44.889Z,3.90
2018-08-07T14:36:15.622Z,4.00
2018-08-07T14:38:45.964Z,3.20
2018-08-07T14:41:16.382Z,3.77
2018-08-07T14:43:47.514Z,4.03
2018-08-07T14:46:19.305Z,3.70
2018-08-07T14:48:50.523Z,4.20
2018-08-07T14:51:23.139Z,3.60
2018-08-07T14:53:53.346Z,3.50
2018-08-07T14:56:23.661Z,3.97
2018-08-07T14:58:54.294Z,3.40
2018-08-07T15:01:24.993Z,4.30
2018-08-07T15:03:56.669Z,3.70
2018-08-07T15:06:27.944Z,4.43
2018-08-07T15:09:00.405Z,4.67
2018-08-07T15:11:30.735Z,4.10
2018-08-07T15:14:01.318Z,3.70
2018-08-07T15:16:32.384Z,3.33
2018-08-07T15:19:04.883Z,3.27
2018-08-07T15:21:35.456Z,3.90
2018-08-07T15:24:05.999Z,4.00
2018-08-07T15:26:36.439Z,4.07
2018-08-07T15:29:07.520Z,4.20
2018-08-07T15:31:46.122Z,3.93
2018-08-07T15:34:17.460Z,4.33
2018-08-07T15:36:49.639Z,3.50
2018-08-07T15:39:22.865Z,4.03
2018-08-07T15:41:57.988Z,3.90
2018-08-07T15:44:30.766Z,3.63
2018-08-07T15:47:02.322Z,3.73
2018-08-07T15:49:41.112Z,4.23
2018-08-07T15:52:15.794Z,4.00
2018-08-07T15:54:46.065Z,3.93
2018-08-07T15:57:18.658Z,4.43
2018-08-07T15:59:52.408Z,4.13
2018-08-07T16:02:23.454Z,4.17
2018-08-07T16:04:54.095Z,4.27
2018-08-07T16:07:24.922Z,3.70
2018-08-07T16:09:55.849Z,4.43
2018-08-07T16:12:26.415Z,4.20
2018-08-07T16:14:57.265Z,3.93
2018-08-07T16:17:28.312Z,4.90
2018-08-07T16:19:59.567Z,3.60
2018-08-07T16:22:31.180Z,4.20
2018-08-07T16:25:01.881Z,4.03
2018-08-07T16:27:32.539Z,3.93
2018-08-07T16:30:02.983Z,3.77
2018-08-07T16:32:33.450Z,3.73
2018-08-07T16:35:04.196Z,4.20
2018-08-07T16:37:34.880Z,4.20
2018-08-07T16:40:08.106Z,3.90
2018-08-07T16:42:38.786Z,3.40
2018-08-07T16:45:12.503Z,4.30
2018-08-07T16:47:43.529Z,4.60
2018-08-07T16:50:17.772Z,4.40
2018-08-07T16:52:48.840Z,4.00
2018-08-07T16:55:19.285Z,3.90
2018-08-07T16:57:49.995Z,3.87
2018-08-07T17:00:20.717Z,4.00
2018-08-07T17:02:51.936Z,4.20
2018-08-07T17:05:22.315Z,5.03
2018-08-07T17:07:57.432Z,4.40
2018-08-07T17:10:31.423Z,4.20
2018-08-07T17:13:01.821Z,4.43
2018-08-07T17:15:32.216Z,3.90
2018-08-07T17:18:02.379Z,4.30
2018-08-07T17:20:32.641Z,5.30
2018-08-07T17:23:03.747Z,4.30
2018-08-07T17:25:34.015Z,4.70
2018-08-07T17:28:04.465Z,4.60
2018-08-07T17:30:34.971Z,4.57
2018-08-07T17:33:05.544Z,4.10
2018-08-07T17:35:35.834Z,4.77
2018-08-07T17:38:06.295Z,5.10
2018-08-07T17:40:36.896Z,5.23
2018-08-07T17:43:06.829Z,4.90
2018-08-07T17:45:36.778Z,5.10
2018-08-07T17:48:07.831Z,5.67
2018-08-07T17:50:37.890Z,4.53
2018-08-07T17:55:52.108Z,4.93
2018-08-07T17:58:28.532Z,4.57
2018-08-07T18:00:58.826Z,5.13
2018-08-07T18:03:28.818Z,4.60
2018-08-07T18:05:58.860Z,4.50
2018-08-07T18:08:29.190Z,4.70
2018-08-07T18:11:00.058Z,4.70
2018-08-07T18:13:29.971Z,5.90
2018-08-07T18:15:59.889Z,5.27
2018-08-07T18:18:30.210Z,5.13
2018-08-07T18:21:00.361Z,5.10
2018-08-07T18:23:31.425Z,4.40
2018-08-07T18:26:01.498Z,5.30
2018-08-07T18:28:35.370Z,5.30
2018-08-07T18:31:05.377Z,5.43
2018-08-07T18:33:35.450Z,5.37
2018-08-07T18:36:05.622Z,4.73
2018-08-07T18:38:35.764Z,5.53
2018-08-07T18:41:05.957Z,5.83
2018-08-07T18:43:35.790Z,5.03
2018-08-07T18:46:06.069Z,4.80
2018-08-07T18:48:35.952Z,5.10
2018-08-07T18:51:05.998Z,5.57
2018-08-07T18:53:35.802Z,5.20
2018-08-07T18:56:05.831Z,5.60
2018-08-07T18:58:35.671Z,6.00
2018-08-07T19:01:05.694Z,5.33
2018-08-07T19:03:35.785Z,5.87
2018-08-07T19:06:05.815Z,5.83
2018-08-07T19:08:35.722Z,5.43
2018-08-07T19:11:05.602Z,5.00
2018-08-07T19:13:35.504Z,6.20
2018-08-07T19:16:05.514Z,5.33
2018-08-07T19:18:35.473Z,5.73
2018-08-07T19:21:07.806Z,5.40
2018-08-07T19:23:38.086Z,6.10
2018-08-07T19:26:08.310Z,6.27
2018-08-07T19:28:38.975Z,5.63
2018-08-07T19:31:09.178Z,5.90
2018-08-07T19:33:39.187Z,7.40
2018-08-07T19:36:09.107Z,6.57
2018-08-07T19:38:39.315Z,6.23
2018-08-07T19:41:13.208Z,6.20
2018-08-07T19:43:43.059Z,5.73
2018-08-07T19:46:13.698Z,5.77
2018-08-07T19:48:43.945Z,6.60
2018-08-07T19:51:13.999Z,6.60
2018-08-07T19:53:44.144Z,7.53
2018-08-07T19:56:21.476Z,6.87
2018-08-07T19:58:52.060Z,7.07
2018-08-07T20:01:22.159Z,6.73
2018-08-07T20:03:52.882Z,6.20
2018-08-07T20:06:23.573Z,7.30
2018-08-07T20:08:53.642Z,7.80
2018-08-07T20:11:23.654Z,8.13
2018-08-07T20:13:53.827Z,9.97
2018-08-07T20:16:23.947Z,8.67
2018-08-07T20:18:54.421Z,18.30
2018-08-07T20:21:24.471Z,9.27
2018-08-07T20:23:54.645Z,8.60
2018-08-07T20:26:28.571Z,8.00
2018-08-07T20:28:58.889Z,5.93
2018-08-07T20:31:29.076Z,6.73
2018-08-07T20:33:59.048Z,5.87
2018-08-07T20:36:29.124Z,6.63
2018-08-07T20:38:59.213Z,7.53
2018-08-07T20:41:29.341Z,6.57
2018-08-07T20:43:59.715Z,6.10
2018-08-07T20:46:29.634Z,8.13
2018-08-07T20:48:59.754Z,7.50
2018-08-07T20:51:30.162Z,7.13
2018-08-07T20:54:00.309Z,8.67
2018-08-07T20:56:30.379Z,6.83
2018-08-07T20:59:00.286Z,6.77
2018-08-07T21:01:30.336Z,7.23
2018-08-07T21:04:00.258Z,6.60
2018-08-07T21:06:30.126Z,6.80
2018-08-07T21:09:00.295Z,7.40
2018-08-07T21:11:30.649Z,6.50
2018-08-07T21:14:01.840Z,6.10
2018-08-07T21:16:32.069Z,6.77
2018-08-07T21:19:02.034Z,6.83
2018-08-07T21:21:32.329Z,6.40
2018-08-07T21:24:02.806Z,6.40
2018-08-07T21:26:32.921Z,6.50
2018-08-07T21:29:02.779Z,6.67
2018-08-07T21:31:32.736Z,6.57
2018-08-07T21:34:02.750Z,7.23
2018-08-07T21:36:32.794Z,6.70
2018-08-07T21:39:02.974Z,6.03
2018-08-07T21:41:33.078Z,6.73
2018-08-07T21:44:03.118Z,6.33
2018-08-07T21:46:33.223Z,6.70
2018-08-07T21:49:03.052Z,6.37
2018-08-07T21:51:33.294Z,6.80
2018-08-07T21:54:03.378Z,6.30
2018-08-07T21:56:33.419Z,7.17
2018-08-07T21:59:03.574Z,6.80
2018-08-07T22:01:33.727Z,6.90
2018-08-07T22:04:03.688Z,6.70
2018-08-07T22:06:33.916Z,7.00
2018-08-07T22:09:04.302Z,6.20
2018-08-07T22:11:34.550Z,5.40
2018-08-07T22:14:04.643Z,6.87
2018-08-07T22:16:34.898Z,5.97
2018-08-07T22:19:04.731Z,6.10
2018-08-07T22:21:34.683Z,5.50
2018-08-07T22:24:04.994Z,5.67
2018-08-07T22:26:35.212Z,5.70
2018-08-07T22:29:05.231Z,6.60
2018-08-07T22:31:35.397Z,5.23
2018-08-07T22:34:05.552Z,5.90
2018-08-07T22:36:35.378Z,5.97
2018-08-07T22:39:08.630Z,5.60
2018-08-07T22:41:38.818Z,6.03
2018-08-07T22:44:08.799Z,6.10
2018-08-07T22:46:38.889Z,6.00
2018-08-07T22:49:08.934Z,5.83
2018-08-07T22:51:38.858Z,6.47
2018-08-07T22:54:09.062Z,6.70
2018-08-07T22:56:39.116Z,6.23
2018-08-07T22:59:09.043Z,6.03
2018-08-07T23:01:38.962Z,6.83
2018-08-07T23:04:09.032Z,6.90
2018-08-07T23:06:39.298Z,6.73
2018-08-07T23:09:09.958Z,7.27
2018-08-07T23:11:40.082Z,7.00
2018-08-07T23:14:10.324Z,7.30
2018-08-07T23:16:40.259Z,6.43
2018-08-07T23:19:10.176Z,7.00
2018-08-07T23:21:40.242Z,7.30
2018-08-07T23:24:10.310Z,7.30
2018-08-07T23:26:40.437Z,7.70
2018-08-07T23:29:10.382Z,6.73
2018-08-07T23:31:40.442Z,6.57
2018-08-07T23:34:10.536Z,7.13
2018-08-07T23:36:40.738Z,7.70
2018-08-07T23:39:11.299Z,7.20
2018-08-07T23:41:41.406Z,7.67
2018-08-07T23:44:11.316Z,7.37
2018-08-07T23:46:41.431Z,7.10
2018-08-07T23:49:11.426Z,7.40
2018-08-07T23:51:41.651Z,8.63
2018-08-07T23:54:11.482Z,8.73
2018-08-07T23:56:41.661Z,9.20
2018-08-07T23:59:11.471Z,10.33
